sensor_id;sensor_type;location;lat;lon;timestamp;pressure;altitude;pressure_sealevel;temperature;humidity
39083;BME280;24834;44.444;26.098;2023-08-07T04:06:26;99669.75;;;20.32;
39083;BME280;24834;44.444;26.098;2023-08-07T12:03:28;99819.69;;;30.78;
39083;BME280;24834;44.444;26.098;2023-08-07T12:10:16;99815.88;;;30.41;
39083;BME280;24834;44.444;26.098;2023-08-07T12:16:20;99814.78;;;30.26;
39083;BME280;24834;44.444;26.098;2023-08-07T12:22:23;99809.47;;;30.35;
39083;BME280;24834;44.444;26.098;2023-08-07T12:28:25;99815.75;;;30.45;
39083;BME280;24834;44.444;26.098;2023-08-07T12:34:28;99812.38;;;30.53;
39083;BME280;24834;44.444;26.098;2023-08-07T12:40:34;99817.25;;;30.92;
39083;BME280;24834;44.444;26.098;2023-08-07T12:46:39;99813.06;;;30.32;
39083;BME280;24834;44.444;26.098;2023-08-07T12:52:42;99820.00;;;30.33;
39083;BME280;24834;44.444;26.098;2023-08-07T12:58:46;99814.06;;;30.72;
39083;BME280;24834;44.444;26.098;2023-08-07T13:04:49;99814.63;;;31.02;
39083;BME280;24834;44.444;26.098;2023-08-07T13:10:52;99834.03;;;30.78;
39083;BME280;24834;44.444;26.098;2023-08-07T13:16:55;99828.97;;;31.24;
39083;BME280;24834;44.444;26.098;2023-08-07T13:22:59;99825.66;;;31.07;
39083;BME280;24834;44.444;26.098;2023-08-07T13:29:02;99826.31;;;30.77;
39083;BME280;24834;44.444;26.098;2023-08-07T13:35:06;99813.88;;;31.23;
39083;BME280;24834;44.444;26.098;2023-08-07T13:41:10;99812.22;;;31.25;
39083;BME280;24834;44.444;26.098;2023-08-07T13:47:14;99818.78;;;31.15;
39083;BME280;24834;44.444;26.098;2023-08-07T13:53:21;99827.69;;;30.94;
39083;BME280;24834;44.444;26.098;2023-08-07T13:59:25;99837.78;;;30.93;
39083;BME280;24834;44.444;26.098;2023-08-07T14:05:28;99838.19;;;31.26;
39083;BME280;24834;44.444;26.098;2023-08-07T14:11:31;99860.59;;;30.96;
39083;BME280;24834;44.444;26.098;2023-08-07T14:17:33;99868.84;;;31.05;
39083;BME280;24834;44.444;26.098;2023-08-07T14:23:35;99869.28;;;31.25;
39083;BME280;24834;44.444;26.098;2023-08-07T14:29:38;99862.53;;;31.30;
39083;BME280;24834;44.444;26.098;2023-08-07T14:35:41;99863.75;;;31.29;
39083;BME280;24834;44.444;26.098;2023-08-07T14:41:44;99860.91;;;30.98;
39083;BME280;24834;44.444;26.098;2023-08-07T14:47:46;99861.97;;;31.35;
39083;BME280;24834;44.444;26.098;2023-08-07T14:53:49;99862.53;;;30.96;
39083;BME280;24834;44.444;26.098;2023-08-07T14:59:51;99866.75;;;31.09;
39083;BME280;24834;44.444;26.098;2023-08-07T15:05:55;99852.66;;;30.67;
39083;BME280;24834;44.444;26.098;2023-08-07T15:12:00;99857.09;;;30.96;
39083;BME280;24834;44.444;26.098;2023-08-07T15:18:04;99852.44;;;30.49;
39083;BME280;24834;44.444;26.098;2023-08-07T15:24:07;99861.09;;;29.94;
39083;BME280;24834;44.444;26.098;2023-08-07T15:30:10;99853.31;;;30.09;
39083;BME280;24834;44.444;26.098;2023-08-07T15:36:12;99863.72;;;29.69;
39083;BME280;24834;44.444;26.098;2023-08-07T15:42:14;99858.00;;;30.08;
39083;BME280;24834;44.444;26.098;2023-08-07T15:48:16;99872.09;;;29.74;
39083;BME280;24834;44.444;26.098;2023-08-07T15:54:19;99875.66;;;29.59;
39083;BME280;24834;44.444;26.098;2023-08-07T16:00:24;99889.03;;;29.50;
39083;BME280;24834;44.444;26.098;2023-08-07T16:06:26;99882.56;;;29.47;
39083;BME280;24834;44.444;26.098;2023-08-07T16:12:29;99888.81;;;29.44;
39083;BME280;24834;44.444;26.098;2023-08-07T16:18:33;99900.94;;;29.40;
39083;BME280;24834;44.444;26.098;2023-08-07T16:24:35;99904.09;;;29.22;
39083;BME280;24834;44.444;26.098;2023-08-07T16:30:38;99906.63;;;29.13;
39083;BME280;24834;44.444;26.098;2023-08-07T16:36:40;99899.78;;;29.08;
39083;BME280;24834;44.444;26.098;2023-08-07T16:42:43;99920.09;;;29.17;
39083;BME280;24834;44.444;26.098;2023-08-07T16:48:45;99922.72;;;29.04;
39083;BME280;24834;44.444;26.098;2023-08-07T16:54:49;99939.38;;;29.02;
39083;BME280;24834;44.444;26.098;2023-08-07T17:00:55;99945.63;;;28.83;
39083;BME280;24834;44.444;26.098;2023-08-07T17:06:58;99950.16;;;28.54;
39083;BME280;24834;44.444;26.098;2023-08-07T17:13:05;99956.97;;;28.43;
39083;BME280;24834;44.444;26.098;2023-08-07T17:19:07;99952.19;;;28.31;
39083;BME280;24834;44.444;26.098;2023-08-07T17:25:09;99957.59;;;28.31;
39083;BME280;24834;44.444;26.098;2023-08-07T17:31:12;99965.41;;;28.25;
39083;BME280;24834;44.444;26.098;2023-08-07T17:37:15;99974.06;;;28.16;
39083;BME280;24834;44.444;26.098;2023-08-07T17:43:17;99977.91;;;28.19;
39083;BME280;24834;44.444;26.098;2023-08-07T17:49:20;99993.06;;;28.13;
39083;BME280;24834;44.444;26.098;2023-08-07T17:55:22;99997.38;;;28.10;
39083;BME280;24834;44.444;26.098;2023-08-07T18:01:25;99999.88;;;28.01;
39083;BME280;24834;44.444;26.098;2023-08-07T18:07:31;100010.44;;;27.92;
39083;BME280;24834;44.444;26.098;2023-08-07T18:13:35;100026.47;;;27.80;
39083;BME280;24834;44.444;26.098;2023-08-07T18:19:39;100016.38;;;27.61;
39083;BME280;24834;44.444;26.098;2023-08-07T18:25:41;100038.94;;;27.74;
39083;BME280;24834;44.444;26.098;2023-08-07T18:31:43;100029.09;;;27.64;
39083;BME280;24834;44.444;26.098;2023-08-07T18:37:47;100035.44;;;27.54;
39083;BME280;24834;44.444;26.098;2023-08-07T18:43:49;100033.13;;;27.52;
39083;BME280;24834;44.444;26.098;2023-08-07T18:49:51;100043.63;;;27.47;
39083;BME280;24834;44.444;26.098;2023-08-07T18:55:56;100045.97;;;27.45;
39083;BME280;24834;44.444;26.098;2023-08-07T19:01:58;100055.31;;;27.36;
39083;BME280;24834;44.444;26.098;2023-08-07T19:08:00;100054.69;;;27.29;
39083;BME280;24834;44.444;26.098;2023-08-07T19:14:03;100062.03;;;27.28;
39083;BME280;24834;44.444;26.098;2023-08-07T19:20:06;100062.59;;;27.16;
39083;BME280;24834;44.444;26.098;2023-08-07T19:26:08;100074.06;;;27.20;
39083;BME280;24834;44.444;26.098;2023-08-07T19:32:11;100073.31;;;27.20;
39083;BME280;24834;44.444;26.098;2023-08-07T19:38:13;100071.56;;;27.06;
39083;BME280;24834;44.444;26.098;2023-08-07T19:44:17;100070.06;;;27.02;
39083;BME280;24834;44.444;26.098;2023-08-07T19:50:20;100093.97;;;27.03;
39083;BME280;24834;44.444;26.098;2023-08-07T19:56:22;100102.75;;;26.77;
39083;BME280;24834;44.444;26.098;2023-08-07T20:02:24;100090.59;;;26.62;
39083;BME280;24834;44.444;26.098;2023-08-07T20:08:26;100102.50;;;26.65;
39083;BME280;24834;44.444;26.098;2023-08-07T20:14:29;100080.34;;;26.46;
39083;BME280;24834;44.444;26.098;2023-08-07T20:20:32;100076.91;;;26.39;
39083;BME280;24834;44.444;26.098;2023-08-07T20:26:34;100082.03;;;26.30;
39083;BME280;24834;44.444;26.098;2023-08-07T20:32:38;100095.88;;;26.28;
39083;BME280;24834;44.444;26.098;2023-08-07T20:38:41;100095.31;;;26.07;
39083;BME280;24834;44.444;26.098;2023-08-07T20:44:45;100111.94;;;26.02;
39083;BME280;24834;44.444;26.098;2023-08-07T20:50:48;100124.09;;;26.20;
39083;BME280;24834;44.444;26.098;2023-08-07T20:56:50;100131.19;;;25.97;
39083;BME280;24834;44.444;26.098;2023-08-07T21:02:53;100134.47;;;25.63;
39083;BME280;24834;44.444;26.098;2023-08-07T21:08:56;100137.56;;;25.65;
39083;BME280;24834;44.444;26.098;2023-08-07T21:14:59;100154.56;;;25.45;
39083;BME280;24834;44.444;26.098;2023-08-07T21:21:05;100159.97;;;25.45;
39083;BME280;24834;44.444;26.098;2023-08-07T21:27:08;100168.47;;;25.22;
39083;BME280;24834;44.444;26.098;2023-08-07T21:33:11;100150.81;;;25.21;
39083;BME280;24834;44.444;26.098;2023-08-07T21:39:13;100175.41;;;25.16;
39083;BME280;24834;44.444;26.098;2023-08-07T21:45:16;100166.94;;;25.25;
39083;BME280;24834;44.444;26.098;2023-08-07T21:51:18;100199.25;;;25.25;
39083;BME280;24834;44.444;26.098;2023-08-07T21:57:23;100218.84;;;25.18;
39083;BME280;24834;44.444;26.098;2023-08-07T22:03:26;100197.75;;;24.81;
39083;BME280;24834;44.444;26.098;2023-08-07T22:09:29;100205.84;;;24.71;
39083;BME280;24834;44.444;26.098;2023-08-07T22:15:31;100208.91;;;24.59;
39083;BME280;24834;44.444;26.098;2023-08-07T22:21:34;100204.28;;;24.59;
39083;BME280;24834;44.444;26.098;2023-08-07T22:27:36;100223.09;;;24.45;
39083;BME280;24834;44.444;26.098;2023-08-07T22:33:39;100253.72;;;24.16;
39083;BME280;24834;44.444;26.098;2023-08-07T22:39:42;100272.19;;;24.17;
39083;BME280;24834;44.444;26.098;2023-08-07T22:45:48;100275.25;;;24.23;
39083;BME280;24834;44.444;26.098;2023-08-07T22:51:51;100267.44;;;23.86;
39083;BME280;24834;44.444;26.098;2023-08-07T22:57:56;100275.28;;;23.55;
39083;BME280;24834;44.444;26.098;2023-08-07T23:03:58;100285.31;;;23.61;
39083;BME280;24834;44.444;26.098;2023-08-07T23:10:00;100286.34;;;23.39;
39083;BME280;24834;44.444;26.098;2023-08-07T23:16:03;100298.09;;;23.24;
39083;BME280;24834;44.444;26.098;2023-08-07T23:22:06;100297.75;;;23.29;
39083;BME280;24834;44.444;26.098;2023-08-07T23:28:08;100288.53;;;23.26;
39083;BME280;24834;44.444;26.098;2023-08-07T23:34:11;100296.44;;;23.09;
39083;BME280;24834;44.444;26.098;2023-08-07T23:40:17;100309.41;;;23.03;
39083;BME280;24834;44.444;26.098;2023-08-07T23:46:19;100292.81;;;22.50;
39083;BME280;24834;44.444;26.098;2023-08-07T23:52:21;100284.16;;;22.34;
39083;BME280;24834;44.444;26.098;2023-08-07T23:58:23;100279.56;;;22.05;
